Time;durP1;ratioP1;P1;durP2;ratioP2;P2;SDS_P1;SDS_P2;PMS_P1;PMS_P2;Temp;Humidity;BMP_temperature;BMP_pressure;BME280_temperature;BME280_humidity;BME280_pressure;Samples;Min_cycle;Max_cycle;Signal;HPM_P1;HPM_P2
2022/08/08 00:00:15;;;;;;;4.95;4.45;;;;;;;18.90;100.00;96530.41;5083710;28;20213;-80
2022/08/08 00:02:49;;;;;;;5.50;4.10;;;;;;;18.88;100.00;96522.47;5086843;28;20278;-80
2022/08/08 00:05:23;;;;;;;5.05;4.32;;;;;;;18.96;100.00;96533.97;5080967;28;20209;-80
2022/08/08 00:07:57;;;;;;;5.28;3.95;;;;;;;19.01;100.00;96533.94;5083133;28;20205;-81
2022/08/08 00:10:33;;;;;;;7.13;4.47;;;;;;;19.05;100.00;96532.31;5085194;28;20200;-81
2022/08/08 00:13:09;;;;;;;6.20;4.57;;;;;;;19.11;100.00;96536.66;5083364;28;20223;-81
2022/08/08 00:15:43;;;;;;;6.93;4.45;;;;;;;19.10;100.00;96535.81;5080042;28;20208;-81
2022/08/08 00:18:22;;;;;;;5.22;4.25;;;;;;;19.06;100.00;96536.66;5081612;28;20220;-80
2022/08/08 00:20:52;;;;;;;4.60;4.18;;;;;;;19.07;100.00;96539.13;5071187;28;20217;-81
2022/08/08 00:23:27;;;;;;;4.88;4.40;;;;;;;19.06;100.00;96536.66;5076181;28;20205;-81
2022/08/08 00:25:58;;;;;;;6.15;4.43;;;;;;;19.04;100.00;96536.97;5077691;28;20266;-81
2022/08/08 00:28:30;;;;;;;4.72;4.32;;;;;;;19.00;100.00;96530.38;5086875;28;20229;-80
2022/08/08 00:31:01;;;;;;;4.75;4.25;;;;;;;19.00;100.00;96529.56;5097245;28;20286;-80
2022/08/08 00:33:32;;;;;;;6.22;4.43;;;;;;;18.93;100.00;96527.13;5084108;28;20249;-80
2022/08/08 00:36:06;;;;;;;4.68;4.25;;;;;;;18.88;100.00;96530.69;5086410;28;20213;-80
2022/08/08 00:38:42;;;;;;;4.90;4.40;;;;;;;18.85;100.00;96522.25;5087483;28;20220;-81
2022/08/08 00:41:44;;;;;;;4.50;4.10;;;;;;;18.88;100.00;96517.00;5085404;28;20205;-81
2022/08/08 00:44:58;;;;;;;4.75;4.03;;;;;;;18.88;100.00;96518.97;5076674;28;20205;-80
2022/08/08 00:48:11;;;;;;;4.40;4.00;;;;;;;18.87;100.00;96520.88;5080959;28;20208;-80
2022/08/08 00:51:29;;;;;;;4.73;4.23;;;;;;;18.86;100.00;96515.66;5084075;28;20201;-80
2022/08/08 00:54:36;;;;;;;4.57;4.18;;;;;;;18.83;100.00;96519.78;5077502;28;20229;-80
2022/08/08 00:57:32;;;;;;;4.40;4.00;;;;;;;18.86;100.00;96524.69;5058393;28;20245;-81
2022/08/08 01:00:08;;;;;;;6.00;4.40;;;;;;;18.93;100.00;96512.63;5085959;28;20211;-80
2022/08/08 01:03:11;;;;;;;4.68;4.28;;;;;;;18.96;100.00;96509.34;5083882;28;20205;-81
2022/08/08 01:06:16;;;;;;;4.63;4.22;;;;;;;18.97;100.00;96517.25;5072330;28;20208;-81
2022/08/08 01:09:15;;;;;;;7.20;3.80;;;;;;;19.02;100.00;96508.22;5091202;28;20208;-80
2022/08/08 01:12:18;;;;;;;5.35;3.70;;;;;;;19.08;100.00;96512.56;5079222;28;20197;-80
2022/08/08 01:15:25;;;;;;;4.80;4.25;;;;;;;19.10;100.00;96515.84;5089248;28;20201;-80
2022/08/08 01:18:32;;;;;;;4.32;3.92;;;;;;;19.11;100.00;96510.09;5084102;28;20248;-81
2022/08/08 01:21:28;;;;;;;4.63;4.22;;;;;;;19.11;100.00;96512.84;5074607;28;20211;-81
2022/08/08 01:24:37;;;;;;;4.70;3.90;;;;;;;19.03;100.00;96515.34;5078986;28;20205;-81
2022/08/08 01:27:52;;;;;;;4.55;3.80;;;;;;;18.93;100.00;96518.09;5076600;28;20241;-80
2022/08/08 01:31:00;;;;;;;4.40;4.00;;;;;;;18.88;100.00;96503.31;4998655;28;20360;-80
2022/08/08 01:34:03;;;;;;;4.35;3.70;;;;;;;18.82;100.00;96512.66;5052615;28;20208;-81
2022/08/08 01:37:18;;;;;;;4.77;4.17;;;;;;;18.82;100.00;96506.38;5079949;28;20209;-80
2022/08/08 01:40:11;;;;;;;5.03;3.97;;;;;;;18.81;100.00;96505.53;5071551;28;20205;-80
2022/08/08 01:42:47;;;;;;;4.53;3.70;;;;;;;18.81;100.00;96497.34;5085169;28;20203;-80
2022/08/08 01:45:33;;;;;;;5.80;4.30;;;;;;;18.83;100.00;96500.63;5097709;28;20208;-80
2022/08/08 01:48:07;;;;;;;6.18;4.28;;;;;;;18.85;100.00;96495.69;5093177;28;20212;-80
2022/08/08 01:50:57;;;;;;;4.40;3.78;;;;;;;18.84;100.00;96496.78;5081126;28;20205;-81
2022/08/08 01:53:38;;;;;;;4.32;3.92;;;;;;;18.89;100.00;96499.50;5084190;28;20205;-81
2022/08/08 01:56:15;;;;;;;4.10;3.78;;;;;;;18.90;100.00;96501.13;5076736;28;20220;-81
2022/08/08 01:58:52;;;;;;;4.30;3.70;;;;;;;18.96;100.00;96506.63;5083699;28;20307;-80
2022/08/08 02:01:39;;;;;;;4.15;3.78;;;;;;;18.94;100.00;96500.59;5079695;28;20205;-81
2022/08/08 02:04:18;;;;;;;3.92;3.60;;;;;;;18.96;100.00;96503.88;5082865;28;20287;-81
2022/08/08 02:07:02;;;;;;;5.43;3.65;;;;;;;19.01;100.00;96503.84;5075800;28;20204;-81
2022/08/08 02:09:47;;;;;;;4.60;3.80;;;;;;;19.01;100.00;96510.13;5079531;28;20211;-80
2022/08/08 02:12:23;;;;;;;4.38;3.97;;;;;;;19.06;100.00;96515.56;5074576;28;20299;-80
2022/08/08 02:14:58;;;;;;;4.35;3.53;;;;;;;19.09;100.00;96522.41;5073953;28;20290;-81
2022/08/08 02:17:29;;;;;;;4.28;3.50;;;;;;;19.08;100.00;96518.03;5085773;28;20216;-81
2022/08/08 02:20:08;;;;;;;7.68;3.88;;;;;;;19.01;100.00;96515.59;5089058;28;20297;-81
2022/08/08 02:22:46;;;;;;;3.80;3.50;;;;;;;18.99;100.00;96514.25;5082493;28;20192;-81
2022/08/08 02:25:21;;;;;;;4.43;3.97;;;;;;;18.94;100.00;96512.34;5069389;28;20295;-81
2022/08/08 02:28:01;;;;;;;3.75;3.45;;;;;;;18.94;100.00;96509.63;5089883;28;20239;-80
2022/08/08 02:30:41;;;;;;;4.78;3.70;;;;;;;18.97;100.00;96516.47;5081692;28;20208;-80
2022/08/08 02:33:39;;;;;;;4.95;3.55;;;;;;;19.00;100.00;96511.22;5064626;28;20262;-80
2022/08/08 02:36:22;;;;;;;5.55;3.70;;;;;;;19.06;100.00;96528.44;5077263;28;20210;-81
2022/08/08 02:39:17;;;;;;;4.43;3.88;;;;;;;19.02;100.00;96524.63;5083820;28;20220;-81
2022/08/08 02:42:18;;;;;;;4.30;3.90;;;;;;;18.97;100.00;96527.41;5076199;28;20297;-80
2022/08/08 02:45:29;;;;;;;5.93;4.25;;;;;;;18.95;100.00;96521.38;5083440;28;20219;-81
2022/08/08 02:48:26;;;;;;;5.13;3.63;;;;;;;19.00;100.00;96526.81;5075210;28;20309;-81
2022/08/08 02:51:28;;;;;;;4.72;3.90;;;;;;;18.97;100.00;96528.19;5082444;28;20215;-81
2022/08/08 02:54:29;;;;;;;6.30;4.13;;;;;;;18.95;100.00;96514.00;5089264;28;20261;-80
2022/08/08 02:57:19;;;;;;;4.15;3.75;;;;;;;18.90;100.00;96517.56;5085027;28;20312;-81
2022/08/08 03:00:29;;;;;;;4.65;3.65;;;;;;;18.89;100.00;96515.09;5081647;28;20205;-80
2022/08/08 03:03:45;;;;;;;5.03;4.20;;;;;;;18.92;100.00;96525.50;5082778;28;20263;-81
2022/08/08 03:06:40;;;;;;;4.25;3.58;;;;;;;18.91;100.00;96523.84;5081110;28;20240;-81
2022/08/08 03:09:49;;;;;;;4.63;3.72;;;;;;;18.90;100.00;96523.03;5083466;28;20213;-80
2022/08/08 03:12:50;;;;;;;4.25;3.95;;;;;;;18.92;100.00;96519.19;5080806;28;20207;-80
2022/08/08 03:15:46;;;;;;;5.22;4.72;;;;;;;18.86;100.00;96521.97;5079954;28;20257;-80
2022/08/08 03:18:18;;;;;;;6.65;4.50;;;;;;;18.87;100.00;96522.78;5080340;28;20221;-80
2022/08/08 03:20:46;;;;;;;4.60;4.20;;;;;;;18.88;100.00;96518.97;5076081;28;20208;-80
2022/08/08 03:23:17;;;;;;;4.95;4.18;;;;;;;18.85;100.00;96514.84;5081858;28;20209;-81
2022/08/08 03:25:46;;;;;;;6.72;4.60;;;;;;;18.85;100.00;96517.59;5084094;28;20197;-80
2022/08/08 03:28:17;;;;;;;5.28;3.90;;;;;;;18.80;100.00;96512.09;5083504;28;20232;-80
2022/08/08 03:30:45;;;;;;;4.38;3.97;;;;;;;18.74;100.00;96512.41;5079333;28;20209;-80
2022/08/08 03:33:18;;;;;;;4.40;4.00;;;;;;;18.67;100.00;96507.25;5077166;28;20212;-80
2022/08/08 03:35:49;;;;;;;4.77;4.30;;;;;;;18.62;100.00;96510.00;5085110;28;20243;-80
2022/08/08 03:38:21;;;;;;;6.03;5.00;;;;;;;18.61;100.00;96511.09;5078833;28;20225;-81
2022/08/08 03:40:51;;;;;;;5.13;4.53;;;;;;;18.57;100.00;96501.78;5084216;28;20273;-80
2022/08/08 03:43:18;;;;;;;5.30;4.50;;;;;;;18.56;100.00;96499.28;5081099;28;20205;-80
2022/08/08 03:45:47;;;;;;;6.60;4.43;;;;;;;18.53;100.00;96497.97;5072475;28;20225;-81
2022/08/08 03:48:14;;;;;;;5.20;4.70;;;;;;;18.51;100.00;96491.94;5082998;28;20204;-81
2022/08/08 03:50:48;;;;;;;7.07;4.67;;;;;;;18.56;100.00;96497.38;5080717;28;20209;-80
2022/08/08 03:53:20;;;;;;;5.35;4.53;;;;;;;18.62;100.00;96498.25;5081521;28;20217;-81
2022/08/08 03:55:50;;;;;;;4.87;4.47;;;;;;;18.64;100.00;96499.59;5084451;28;20252;-80
2022/08/08 03:58:20;;;;;;;6.07;4.60;;;;;;;18.69;100.00;96499.59;5081672;28;20225;-81
2022/08/08 04:00:52;;;;;;;4.83;4.43;;;;;;;18.71;100.00;96500.13;5081039;28;20208;-81
2022/08/08 04:03:21;;;;;;;4.40;4.00;;;;;;;18.73;100.00;96491.63;5081557;28;20241;-81
2022/08/08 04:05:48;;;;;;;5.65;4.22;;;;;;;18.72;100.00;96499.00;5076016;28;20297;-81
2022/08/08 04:08:18;;;;;;;5.28;4.13;;;;;;;18.71;100.00;96493.84;5084114;28;20296;-80
2022/08/08 04:10:49;;;;;;;5.35;4.43;;;;;;;18.76;100.00;96504.75;5077057;28;20335;-81
2022/08/08 04:13:19;;;;;;;7.80;4.40;;;;;;;18.72;100.00;96504.47;5072220;28;20213;-80
2022/08/08 04:15:59;;;;;;;9.33;4.60;;;;;;;18.72;100.00;96504.47;5084284;28;20204;-80
2022/08/08 04:18:27;;;;;;;6.27;4.27;;;;;;;18.68;100.00;96503.41;5080587;28;20216;-81
2022/08/08 04:20:54;;;;;;;4.83;4.43;;;;;;;18.68;100.00;96514.34;5085331;28;20207;-81
2022/08/08 04:23:22;;;;;;;4.83;4.20;;;;;;;18.70;100.00;96512.16;5076863;28;20192;-81
2022/08/08 04:25:52;;;;;;;5.10;4.43;;;;;;;18.71;100.00;96513.81;5084168;28;20205;-80
2022/08/08 04:28:19;;;;;;;5.03;4.47;;;;;;;18.68;100.00;96506.16;5092658;28;20238;-80
2022/08/08 04:30:47;;;;;;;5.07;4.50;;;;;;;18.70;100.00;96509.44;5083271;28;20646;-80
2022/08/08 04:33:15;;;;;;;6.33;4.17;;;;;;;18.76;100.00;96522.00;5083623;28;20201;-80
2022/08/08 04:35:42;;;;;;;5.20;4.80;;;;;;;18.75;100.00;96514.06;5082539;28;20237;-80
2022/08/08 04:38:10;;;;;;;7.15;5.78;;;;;;;18.83;100.00;96529.91;5087899;28;20214;-80
2022/08/08 04:40:41;;;;;;;6.43;5.60;;;;;;;18.77;100.00;96523.63;5086642;28;20217;-80
2022/08/08 04:43:10;;;;;;;5.03;4.57;;;;;;;18.76;100.00;96522.00;5086011;28;20204;-80
2022/08/08 04:45:46;;;;;;;6.77;4.90;;;;;;;18.79;100.00;96526.09;5080532;28;20197;-80
2022/08/08 04:48:13;;;;;;;6.25;4.35;;;;;;;18.85;100.00;96525.78;5075751;28;20208;-80
2022/08/08 04:50:40;;;;;;;5.60;4.45;;;;;;;18.80;100.00;96528.53;5083022;28;20209;-80
2022/08/08 04:53:12;;;;;;;4.67;4.17;;;;;;;18.82;100.00;96531.81;5086345;28;20201;-80
2022/08/08 04:55:41;;;;;;;4.72;4.32;;;;;;;18.83;100.00;96530.72;5079586;28;20201;-80
2022/08/08 04:58:12;;;;;;;7.38;4.53;;;;;;;18.85;100.00;96534.00;5083497;28;20280;-80
2022/08/08 05:00:42;;;;;;;5.72;4.30;;;;;;;18.91;100.00;96537.53;5072395;28;20204;-80
2022/08/08 05:03:10;;;;;;;6.30;4.25;;;;;;;18.97;100.00;96533.66;5077499;28;20197;-81
2022/08/08 05:05:37;;;;;;;5.53;4.45;;;;;;;19.05;100.00;96537.78;5081331;28;20201;-80
2022/08/08 05:08:05;;;;;;;4.70;3.97;;;;;;;19.04;100.00;96541.59;5098776;28;20201;-80
2022/08/08 05:10:32;;;;;;;4.28;3.85;;;;;;;19.07;100.00;96546.50;5082724;28;20197;-80
2022/08/08 05:13:01;;;;;;;5.18;4.38;;;;;;;19.14;100.00;96558.00;5084779;28;20211;-80
2022/08/08 05:15:29;;;;;;;6.18;4.20;;;;;;;19.14;100.00;96547.84;5079664;28;20279;-80
2022/08/08 05:17:58;;;;;;;7.13;4.10;;;;;;;19.14;100.00;96549.78;5085210;28;20236;-80
2022/08/08 05:20:26;;;;;;;5.00;4.50;;;;;;;19.18;100.00;96553.59;5099271;28;20209;-80
2022/08/08 05:22:54;;;;;;;5.32;4.47;;;;;;;19.17;100.00;96557.41;5081432;28;20209;-80
2022/08/08 05:25:22;;;;;;;7.50;4.53;;;;;;;19.19;100.00;96557.97;5086241;28;20196;-80
2022/08/08 05:27:49;;;;;;;7.47;4.90;;;;;;;19.18;100.00;96550.84;5083392;28;20235;-80
2022/08/08 05:30:16;;;;;;;5.68;4.72;;;;;;;19.17;100.00;96557.41;5080765;28;20216;-81
2022/08/08 05:32:46;;;;;;;5.38;4.20;;;;;;;19.22;100.00;96557.41;5082916;28;20213;-80
2022/08/08 05:35:23;;;;;;;5.05;4.40;;;;;;;19.25;100.00;96556.84;5085221;28;20250;-80
2022/08/08 05:37:55;;;;;;;6.47;4.28;;;;;;;19.30;100.00;96559.56;5083123;28;20228;-80
2022/08/08 05:40:38;;;;;;;4.88;4.38;;;;;;;19.33;100.00;96564.47;5079632;28;20227;-81
2022/08/08 05:43:09;;;;;;;7.65;5.63;;;;;;;19.39;100.00;96563.38;5081382;28;20211;-81
2022/08/08 05:45:37;;;;;;;5.95;4.78;;;;;;;19.38;100.00;96566.38;5083818;28;20204;-80
2022/08/08 05:48:07;;;;;;;5.43;4.93;;;;;;;19.37;100.00;96560.09;5080941;28;20273;-81
2022/08/08 05:50:37;;;;;;;5.82;4.97;;;;;;;19.42;100.00;96564.69;5085073;28;20207;-81
2022/08/08 05:53:05;;;;;;;5.80;5.13;;;;;;;19.44;100.00;96568.81;5085500;28;20216;-80
2022/08/08 05:55:35;;;;;;;7.22;4.93;;;;;;;19.44;100.00;96562.50;5081211;28;20266;-80
2022/08/08 05:58:04;;;;;;;7.15;5.35;;;;;;;19.47;100.00;96562.81;5081480;28;20209;-80
2022/08/08 06:00:33;;;;;;;7.32;5.57;;;;;;;19.47;100.00;96564.69;5077093;28;20209;-80
2022/08/08 06:03:11;;;;;;;5.53;5.03;;;;;;;19.53;100.00;96563.59;5082072;28;20284;-80
2022/08/08 06:05:51;;;;;;;6.40;5.43;;;;;;;19.58;100.00;96561.63;5087235;28;20216;-80
2022/08/08 06:08:23;;;;;;;5.35;4.85;;;;;;;19.62;100.00;96562.72;5078819;28;20200;-81
2022/08/08 06:10:51;;;;;;;5.72;5.10;;;;;;;19.61;100.00;96565.75;5086729;28;20209;-81
2022/08/08 06:13:19;;;;;;;6.75;5.78;;;;;;;19.60;100.00;96564.91;5084381;28;20287;-81
2022/08/08 06:15:49;;;;;;;5.80;5.30;;;;;;;19.59;100.00;96574.25;5079967;28;20212;-81
2022/08/08 06:18:19;;;;;;;5.63;5.13;;;;;;;19.63;100.00;96564.38;5077139;28;20235;-81
2022/08/08 06:20:48;;;;;;;6.20;4.72;;;;;;;19.70;100.00;96577.75;5079427;28;20212;-80
2022/08/08 06:23:16;;;;;;;5.63;5.13;;;;;;;19.75;100.00;96576.88;5076388;28;20269;-80
2022/08/08 06:25:43;;;;;;;5.38;4.82;;;;;;;19.83;100.00;96584.50;5084994;28;20235;-81
2022/08/08 06:28:15;;;;;;;6.00;5.40;;;;;;;19.87;100.00;96580.09;5080760;28;20225;-80
2022/08/08 06:30:43;;;;;;;6.80;5.65;;;;;;;19.87;100.00;96580.09;5080243;28;20204;-80
2022/08/08 06:33:12;;;;;;;6.00;5.40;;;;;;;19.91;100.00;96586.66;5077656;28;20215;-80
2022/08/08 06:35:46;;;;;;;8.40;5.60;;;;;;;19.98;100.00;96587.19;5082159;28;20346;-80
2022/08/08 06:38:22;;;;;;;6.28;5.18;;;;;;;20.00;100.00;96591.25;5079818;28;20201;-81
2022/08/08 06:40:57;;;;;;;5.60;5.10;;;;;;;20.06;100.00;96593.97;5082455;28;20250;-81
2022/08/08 06:43:33;;;;;;;5.95;5.15;;;;;;;20.03;100.00;96592.63;5081420;28;20208;-80
2022/08/08 06:46:04;;;;;;;8.13;6.20;;;;;;;20.08;100.00;96591.75;5079704;28;20220;-80
2022/08/08 06:48:31;;;;;;;6.53;5.20;;;;;;;20.15;100.00;96598.56;5076922;28;20206;-80
2022/08/08 06:51:02;;;;;;;6.20;4.95;;;;;;;20.23;100.00;96597.16;5093889;28;20228;-81
2022/08/08 06:53:32;;;;;;;6.57;5.70;;;;;;;20.28;100.00;96608.06;5102118;28;20209;-81
2022/08/08 06:55:59;;;;;;;7.15;6.20;;;;;;;20.29;100.00;96604.22;5090453;28;20225;-81
2022/08/08 06:58:27;;;;;;;9.15;6.03;;;;;;;20.35;100.00;96614.06;5096128;28;20211;-81
2022/08/08 07:00:56;;;;;;;6.70;5.45;;;;;;;20.31;100.00;96608.31;5097257;28;20228;-81
2022/08/08 07:03:35;;;;;;;8.15;5.80;;;;;;;20.32;100.00;96606.41;5099676;28;20197;-81
2022/08/08 07:06:04;;;;;;;6.72;6.13;;;;;;;20.35;100.00;96616.81;5100130;28;20205;-83
2022/08/08 07:08:39;;;;;;;8.10;6.10;;;;;;;20.38;100.00;96614.31;5099248;28;20219;-82
2022/08/08 07:11:07;;;;;;;6.25;5.65;;;;;;;20.45;100.00;96614.00;5097943;28;20184;-82
2022/08/08 07:13:39;;;;;;;7.10;5.88;;;;;;;20.49;100.00;96620.56;5118544;28;20201;-81
2022/08/08 07:16:18;;;;;;;10.85;9.18;;;;;;;20.55;100.00;96624.06;5098821;28;20220;-82
2022/08/08 07:19:05;;;;;;;8.48;7.13;;;;;;;20.55;100.00;96613.09;5078816;28;20224;-81
2022/08/08 07:21:42;;;;;;;7.25;6.55;;;;;;;20.57;100.00;96614.47;5094291;28;20280;-84
2022/08/08 07:24:16;;;;;;;7.20;6.50;;;;;;;20.53;100.00;96615.31;5088467;28;20200;-82
2022/08/08 07:26:53;;;;;;;8.48;6.80;;;;;;;20.58;100.00;96624.31;5073654;28;20209;-84
2022/08/08 07:29:22;;;;;;;8.45;7.65;;;;;;;20.56;100.00;96621.03;5084905;28;20197;-84
2022/08/08 07:31:50;;;;;;;7.95;7.25;;;;;;;20.58;100.00;96627.06;5085459;28;20213;-82
2022/08/08 07:34:18;;;;;;;7.82;6.65;;;;;;;20.58;100.00;96613.34;5086518;28;20201;-84
2022/08/08 07:36:48;;;;;;;7.65;6.95;;;;;;;20.66;100.00;96620.16;5089713;28;20260;-84
2022/08/08 07:39:22;;;;;;;8.40;7.20;;;;;;;20.68;100.00;96617.91;5090129;28;20228;-82
2022/08/08 07:41:50;;;;;;;8.48;7.15;;;;;;;20.68;100.00;96621.47;5089023;28;20297;-83
2022/08/08 07:44:20;;;;;;;8.60;7.80;;;;;;;20.73;100.00;96626.13;5093941;28;20250;-81
2022/08/08 07:46:47;;;;;;;8.57;7.05;;;;;;;20.77;100.00;96622.50;5093201;28;20223;-84
2022/08/08 07:49:17;;;;;;;7.75;7.05;;;;;;;20.82;100.00;96621.63;5087139;28;20204;-82
2022/08/08 07:51:45;;;;;;;7.47;6.72;;;;;;;20.84;100.00;96624.91;5093562;28;20269;-83
2022/08/08 07:54:25;;;;;;;8.02;7.28;;;;;;;20.88;100.00;96615.00;5098899;28;20239;-82
2022/08/08 07:57:02;;;;;;;7.97;7.07;;;;;;;20.86;100.00;96621.88;5092563;28;20300;-83
2022/08/08 07:59:38;;;;;;;8.70;7.90;;;;;;;20.81;100.00;96617.25;5104996;28;20219;-83
2022/08/08 08:02:13;;;;;;;7.18;6.45;;;;;;;20.88;100.00;96620.47;5098228;28;20288;-83
2022/08/08 08:04:46;;;;;;;7.97;7.18;;;;;;;20.91;100.00;96619.91;5090284;28;20231;-81
2022/08/08 08:07:15;;;;;;;8.00;7.20;;;;;;;21.00;100.00;96620.09;5095356;28;20220;-83
2022/08/08 08:09:44;;;;;;;7.68;6.97;;;;;;;21.14;100.00;96616.38;5110695;28;20205;-83
2022/08/08 08:12:12;;;;;;;8.43;7.30;;;;;;;21.14;100.00;96615.53;5099035;28;20251;-84
2022/08/08 08:14:53;;;;;;;7.05;6.45;;;;;;;21.33;100.00;96621.16;5091335;28;20228;-83
2022/08/08 08:17:22;;;;;;;7.25;6.63;;;;;;;21.55;100.00;96620.59;5091209;28;20250;-81
2022/08/08 08:19:58;;;;;;;7.82;6.60;;;;;;;21.66;100.00;96609.19;5087280;28;20221;-81
2022/08/08 08:22:26;;;;;;;7.57;6.53;;;;;;;21.68;100.00;96615.22;5085759;28;20214;-81
2022/08/08 08:24:57;;;;;;;6.47;5.88;;;;;;;22.03;100.00;96613.94;5087817;28;20201;-81
2022/08/08 08:27:24;;;;;;;6.80;6.20;;;;;;;22.05;100.00;96613.63;5079141;28;20225;-81
2022/08/08 08:29:55;;;;;;;8.25;6.72;;;;;;;22.05;100.00;96608.13;5088099;28;20203;-82
2022/08/08 08:32:23;;;;;;;6.95;6.28;;;;;;;22.37;100.00;96616.44;5090982;28;20201;-81
2022/08/08 08:34:51;;;;;;;7.88;5.97;;;;;;;22.73;100.00;96611.19;5090780;28;20212;-82
2022/08/08 08:37:19;;;;;;;6.85;6.25;;;;;;;22.98;100.00;96615.47;5103897;28;20208;-82
2022/08/08 08:39:47;;;;;;;7.13;6.43;;;;;;;23.15;100.00;96617.63;5090718;28;20225;-82
2022/08/08 08:42:17;;;;;;;7.60;6.65;;;;;;;23.20;100.00;96610.09;5087555;28;20204;-81
2022/08/08 08:44:45;;;;;;;6.80;6.20;;;;;;;23.32;100.00;96624.19;5089724;28;20212;-81
2022/08/08 08:47:12;;;;;;;6.75;5.32;;;;;;;23.60;100.00;96613.22;5085677;28;20220;-82
2022/08/08 08:49:41;;;;;;;8.15;6.13;;;;;;;23.70;100.00;96610.25;5081696;28;20225;-82
2022/08/08 08:52:14;;;;;;;7.00;6.30;;;;;;;23.89;100.00;96608.19;5083227;28;20189;-81
2022/08/08 08:54:42;;;;;;;6.65;6.05;;;;;;;23.81;98.53;96606.16;5073541;28;20225;-81
2022/08/08 08:57:10;;;;;;;6.72;6.03;;;;;;;23.88;99.67;96608.50;5085847;28;20217;-82
2022/08/08 08:59:42;;;;;;;6.32;5.72;;;;;;;23.75;98.23;96615.63;5088699;28;20228;-81
2022/08/08 09:02:19;;;;;;;6.75;5.53;;;;;;;23.92;97.86;96606.72;5087560;28;20212;-82
2022/08/08 09:04:48;;;;;;;5.78;5.28;;;;;;;24.10;96.75;96598.31;5077705;28;20236;-81
2022/08/08 09:07:23;;;;;;;5.95;5.35;;;;;;;24.33;96.13;96603.91;5090073;28;20208;-81
2022/08/08 09:09:54;;;;;;;6.30;5.70;;;;;;;24.43;93.66;96604.47;5085538;28;20205;-82
2022/08/08 09:12:26;;;;;;;6.28;5.65;;;;;;;24.37;94.53;96604.91;5089507;28;20200;-82
2022/08/08 09:14:58;;;;;;;9.70;8.70;;;;;;;24.40;96.00;96598.78;5077881;28;20197;-82
2022/08/08 09:17:30;;;;;;;6.75;6.13;;;;;;;24.51;95.31;96608.41;5082266;28;20332;-82
2022/08/08 09:19:59;;;;;;;6.07;5.47;;;;;;;24.53;93.90;96606.16;5089212;28;20223;-82
2022/08/08 09:22:27;;;;;;;6.18;5.00;;;;;;;24.59;94.15;96598.56;5077101;28;20233;-82
2022/08/08 09:24:56;;;;;;;5.68;5.18;;;;;;;24.80;93.71;96600.53;5075778;28;20212;-82
2022/08/08 09:27:25;;;;;;;6.32;5.72;;;;;;;24.72;93.08;96598.53;5088233;28;20319;-82
2022/08/08 09:30:02;;;;;;;7.63;5.72;;;;;;;24.74;90.70;96604.56;5088267;28;20258;-81
2022/08/08 09:32:38;;;;;;;6.10;5.50;;;;;;;24.64;93.40;96599.28;5076884;28;20200;-82
2022/08/08 09:35:11;;;;;;;6.20;5.60;;;;;;;24.80;91.52;96589.47;5082616;28;20220;-82
2022/08/08 09:37:47;;;;;;;5.90;5.40;;;;;;;24.92;91.87;96596.41;5080319;28;20220;-81
2022/08/08 09:40:17;;;;;;;5.68;5.18;;;;;;;24.91;89.97;96594.75;5079506;28;20240;-82
2022/08/08 09:42:46;;;;;;;6.55;5.95;;;;;;;24.70;91.46;96606.31;5073252;28;20274;-81
2022/08/08 09:45:20;;;;;;;6.88;5.63;;;;;;;24.67;92.00;96606.91;5073882;28;20225;-82
2022/08/08 09:47:48;;;;;;;6.25;5.55;;;;;;;24.93;92.05;96603.53;5085168;28;20236;-82
2022/08/08 09:50:17;;;;;;;5.63;5.13;;;;;;;25.03;89.12;96600.50;5088313;28;20231;-82
2022/08/08 09:52:49;;;;;;;7.30;5.40;;;;;;;24.95;87.61;96607.63;5098761;28;20212;-81
2022/08/08 09:55:17;;;;;;;5.70;4.28;;;;;;;24.92;87.53;96588.13;5086448;28;20205;-81
2022/08/08 09:57:48;;;;;;;6.80;4.97;;;;;;;25.04;86.98;96602.16;5083280;28;20288;-81
2022/08/08 10:00:19;;;;;;;5.00;4.60;;;;;;;25.24;86.54;96596.91;5076099;28;20241;-81
2022/08/08 10:02:48;;;;;;;5.93;4.70;;;;;;;25.40;86.71;96596.47;5086266;28;20201;-81
2022/08/08 10:05:17;;;;;;;5.50;4.32;;;;;;;25.58;84.99;96607.28;5083029;28;20284;-82
2022/08/08 10:07:54;;;;;;;4.88;4.38;;;;;;;25.56;83.06;96594.91;5087245;28;20208;-82
2022/08/08 10:10:24;;;;;;;4.82;4.43;;;;;;;25.49;83.80;96600.91;5074523;28;20197;-81
2022/08/08 10:12:52;;;;;;;5.57;4.95;;;;;;;25.61;84.61;96586.47;5076367;28;20272;-82
2022/08/08 10:15:21;;;;;;;5.05;4.60;;;;;;;25.82;82.67;96600.53;5092004;28;20192;-81
2022/08/08 10:17:50;;;;;;;4.80;4.07;;;;;;;25.72;82.18;96589.78;5071223;28;20202;-81
2022/08/08 10:20:18;;;;;;;4.68;4.30;;;;;;;25.81;79.59;96591.44;5089123;28;20232;-81
2022/08/08 10:22:54;;;;;;;4.53;4.20;;;;;;;25.79;80.00;96592.88;5073039;28;20222;-82
2022/08/08 10:25:23;;;;;;;5.38;4.70;;;;;;;25.75;80.55;96589.16;5084940;28;20264;-82
2022/08/08 10:27:52;;;;;;;5.38;4.65;;;;;;;25.77;82.35;96587.69;5082393;28;20241;-82
2022/08/08 10:30:22;;;;;;;5.15;4.75;;;;;;;25.84;79.55;96589.97;5085395;28;20205;-82
2022/08/08 10:32:51;;;;;;;4.82;4.43;;;;;;;25.82;81.22;96592.25;5078062;28;20210;-82
2022/08/08 10:35:19;;;;;;;4.93;4.53;;;;;;;25.85;79.41;96580.56;5083363;28;20205;-81
2022/08/08 10:37:52;;;;;;;5.20;4.70;;;;;;;25.81;78.85;96582.31;5081584;28;20240;-82
2022/08/08 10:40:21;;;;;;;5.70;5.20;;;;;;;25.86;81.12;96584.94;5080183;28;20277;-81
2022/08/08 10:42:50;;;;;;;5.10;4.70;;;;;;;25.97;80.02;96586.25;5079561;28;20274;-82
2022/08/08 10:45:17;;;;;;;4.78;4.38;;;;;;;26.21;80.54;96589.38;5086352;28;20226;-82
2022/08/08 10:47:52;;;;;;;5.60;5.10;;;;;;;26.39;78.42;96587.44;5087614;28;20196;-81
2022/08/08 10:50:20;;;;;;;5.22;4.82;;;;;;;26.32;79.32;96574.09;5082358;28;20265;-82
2022/08/08 10:52:47;;;;;;;5.43;4.50;;;;;;;26.30;77.33;96568.06;5095651;28;20295;-82
2022/08/08 10:55:16;;;;;;;5.47;4.97;;;;;;;26.24;77.82;96583.19;5085766;28;20228;-82
2022/08/08 10:57:45;;;;;;;5.30;4.85;;;;;;;26.10;79.05;96567.88;5086738;28;20270;-82
2022/08/08 11:00:15;;;;;;;6.95;5.50;;;;;;;26.23;79.31;96570.50;5077468;28;20293;-81
2022/08/08 11:02:42;;;;;;;5.45;5.05;;;;;;;26.34;77.40;96574.59;5081637;28;20263;-82
2022/08/08 11:05:12;;;;;;;5.47;5.07;;;;;;;26.43;78.33;96568.25;5085151;28;20201;-83
2022/08/08 11:07:40;;;;;;;5.80;5.07;;;;;;;26.41;78.82;96581.59;5080018;28;20204;-82
2022/08/08 11:10:09;;;;;;;5.28;4.88;;;;;;;26.37;78.93;96578.66;5101288;28;20330;-82
2022/08/08 11:12:46;;;;;;;5.18;4.50;;;;;;;26.66;77.99;96575.22;5085180;28;20205;-83
2022/08/08 11:15:15;;;;;;;5.43;4.88;;;;;;;26.97;78.21;96563.94;5083175;28;20207;-82
2022/08/08 11:17:42;;;;;;;5.60;5.10;;;;;;;26.65;74.74;96577.19;5084161;28;20204;-82
2022/08/08 11:20:13;;;;;;;5.10;4.60;;;;;;;26.79;77.12;96560.38;5084626;28;20221;-82
2022/08/08 11:22:41;;;;;;;5.50;5.10;;;;;;;26.63;74.98;96562.84;5078868;28;20312;-83
2022/08/08 11:25:11;;;;;;;5.07;4.65;;;;;;;26.74;77.06;96563.31;5082934;28;20270;-82
2022/08/08 11:27:38;;;;;;;5.10;4.70;;;;;;;26.70;74.40;96562.34;5082039;28;20244;-82
2022/08/08 11:30:08;;;;;;;5.38;4.90;;;;;;;26.62;73.90;96558.47;5091487;28;20216;-82
2022/08/08 11:32:38;;;;;;;5.05;4.60;;;;;;;26.76;75.07;96544.41;5081299;28;20204;-82
2022/08/08 11:35:08;;;;;;;5.07;4.57;;;;;;;27.06;75.00;96546.13;5081646;28;20212;-82
2022/08/08 11:37:39;;;;;;;5.55;4.90;;;;;;;27.11;71.77;96550.69;5079498;28;20306;-82
2022/08/08 11:40:10;;;;;;;6.10;4.78;;;;;;;26.98;74.07;96552.53;5080579;28;20240;-82
2022/08/08 11:42:38;;;;;;;7.15;4.65;;;;;;;27.01;73.15;96551.88;5081956;28;20192;-83
2022/08/08 11:45:07;;;;;;;5.25;4.43;;;;;;;27.09;73.46;96545.50;5085796;28;20205;-82
2022/08/08 11:47:35;;;;;;;5.55;5.07;;;;;;;27.31;72.95;96552.72;5086755;28;20205;-83
2022/08/08 11:50:05;;;;;;;5.28;4.80;;;;;;;27.28;71.23;96544.28;5087649;28;20215;-82
2022/08/08 11:52:32;;;;;;;5.47;4.97;;;;;;;27.01;73.21;96540.78;5099438;28;20208;-82
2022/08/08 11:55:01;;;;;;;6.38;4.90;;;;;;;26.89;73.49;96537.03;5094056;28;20205;-82
2022/08/08 11:57:32;;;;;;;5.50;5.03;;;;;;;27.07;74.37;96541.41;5084493;28;20220;-83
2022/08/08 12:00:00;;;;;;;5.28;4.78;;;;;;;27.05;73.16;96525.09;5088907;28;20260;-83
2022/08/08 12:02:30;;;;;;;5.28;4.55;;;;;;;27.05;73.58;96530.66;5088847;28;20289;-82